Station Historical Data
Daily Summary for August 16, 2017 Units:  English    Metric   Both
« Previous Day
Next Day »
Daily Weekly Monthly Yearly Custom
  High: Low: Average:
Temperature: 80.0 °F 61.8 °F 69.5 °F
Dew Point: 60.4 °F 54.7 °F 57.1 °F
Humidity: 81 % 48 % 66 %
Wind Speed: 6.0 mph 0.0 mph 0.4 mph
Wind Gust: 9.0 mph - -
Wind:- - SW
Pressure: 29.94 in 29.86 in -
Precipitation: 0.00 in    
Historical Graphs
 
 
Tabular Data for August 16, 2017
Time Temperature Dew Point Pressure Wind Wind Speed Wind Gust Humidity Rainfall Rate (Hourly) solar
00:03 63.2 °F 54.8 °F 29.87 in Calm     74 % 0.00 in 0.00 W/m2
00:08 63.2 °F 54.8 °F 29.87 in Calm     74 % 0.00 in 0.00 W/m2
00:13 63.1 °F 54.7 °F 29.87 in Calm     74 % 0.00 in 0.00 W/m2
00:18 63.1 °F 54.7 °F 29.87 in Calm     74 % 0.00 in 0.00 W/m2
00:23 63.1 °F 54.7 °F 29.87 in Calm     74 % 0.00 in 0.00 W/m2
00:28 63.1 °F 54.7 °F 29.87 in Calm     74 % 0.00 in 0.00 W/m2
00:33 63.1 °F 54.7 °F 29.87 in Calm     74 % 0.00 in 0.00 W/m2
00:38 63.2 °F 54.8 °F 29.87 in Calm     74 % 0.00 in 0.00 W/m2
00:43 63.2 °F 54.8 °F 29.86 in Calm   4.0 mph 74 % 0.00 in 0.00 W/m2
00:48 63.2 °F 55.2 °F 29.87 in Calm   4.0 mph 75 % 0.00 in 0.00 W/m2
00:53 63.3 °F 55.2 °F 29.87 in Calm   4.0 mph 75 % 0.00 in 0.00 W/m2
00:58 63.3 °F 55.2 °F 29.87 in South 2.0 mph 4.0 mph 75 % 0.00 in 0.00 W/m2
01:03 63.3 °F 55.2 °F 29.87 in Calm   7.0 mph 75 % 0.00 in 0.00 W/m2
01:08 63.4 °F 55.3 °F 29.87 in Calm     75 % 0.00 in 0.00 W/m2
01:13 63.4 °F 55.3 °F 29.87 in Calm   4.0 mph 75 % 0.00 in 0.00 W/m2
01:18 63.4 °F 55.3 °F 29.87 in Calm   6.0 mph 75 % 0.00 in 0.00 W/m2
01:23 63.5 °F 55.4 °F 29.87 in Calm   8.0 mph 75 % 0.00 in 0.00 W/m2
01:28 63.5 °F 55.4 °F 29.87 in Calm     75 % 0.00 in 0.00 W/m2
01:33 63.5 °F 55.8 °F 29.87 in Calm   7.0 mph 76 % 0.00 in 0.00 W/m2
01:38 63.5 °F 55.4 °F 29.87 in Calm   6.0 mph 75 % 0.00 in 0.00 W/m2
01:43 63.6 °F 55.5 °F 29.87 in Calm     75 % 0.00 in 0.00 W/m2
01:48 63.6 °F 55.5 °F 29.87 in Calm     75 % 0.00 in 0.00 W/m2
01:53 63.6 °F 55.5 °F 29.87 in Calm   2.0 mph 75 % 0.00 in 0.00 W/m2
01:58 63.7 °F 55.6 °F 29.87 in Calm   5.0 mph 75 % 0.00 in 0.00 W/m2
02:03 63.7 °F 55.6 °F 29.87 in Calm     75 % 0.00 in 0.00 W/m2
02:08 63.7 °F 55.6 °F 29.87 in Calm     75 % 0.00 in 0.00 W/m2
02:13 63.8 °F 55.7 °F 29.87 in Calm     75 % 0.00 in 0.00 W/m2
02:18 63.7 °F 55.6 °F 29.87 in Calm     75 % 0.00 in 0.00 W/m2
02:23 63.7 °F 55.6 °F 29.87 in Calm     75 % 0.00 in 0.00 W/m2
02:28 63.6 °F 55.5 °F 29.87 in Calm     75 % 0.00 in 0.00 W/m2
02:33 63.6 °F 55.5 °F 29.87 in Calm   1.0 mph 75 % 0.00 in 0.00 W/m2
02:38 63.5 °F 55.8 °F 29.88 in Calm     76 % 0.00 in 0.00 W/m2
02:43 63.4 °F 55.3 °F 29.88 in Calm     75 % 0.00 in 0.00 W/m2
02:48 63.3 °F 55.2 °F 29.88 in Calm     75 % 0.00 in 0.00 W/m2
02:53 63.2 °F 55.2 °F 29.88 in Calm   1.0 mph 75 % 0.00 in 0.00 W/m2
02:58 63.2 °F 55.5 °F 29.88 in Calm     76 % 0.00 in 0.00 W/m2
03:03 63.1 °F 55.4 °F 29.88 in Calm     76 % 0.00 in 0.00 W/m2
03:08 63.1 °F 55.4 °F 29.88 in Calm   1.0 mph 76 % 0.00 in 0.00 W/m2
03:13 63.1 °F 55.4 °F 29.88 in Calm     76 % 0.00 in 0.00 W/m2
03:18 63.0 °F 55.3 °F 29.89 in East 1.0 mph 1.0 mph 76 % 0.00 in 0.00 W/m2
03:24 63.0 °F 55.3 °F 29.88 in Calm   1.0 mph 76 % 0.00 in 0.00 W/m2
03:29 62.9 °F 55.2 °F 29.88 in Calm     76 % 0.00 in 0.00 W/m2
03:34 62.9 °F 55.2 °F 29.88 in Calm   4.0 mph 76 % 0.00 in 0.00 W/m2
03:39 62.8 °F 55.1 °F 29.88 in Calm     76 % 0.00 in 0.00 W/m2
03:44 62.7 °F 55.0 °F 29.88 in Calm     76 % 0.00 in 0.00 W/m2
03:49 62.7 °F 55.0 °F 29.88 in Calm     76 % 0.00 in 0.00 W/m2
03:54 62.6 °F 54.9 °F 29.88 in Calm     76 % 0.00 in 0.00 W/m2
03:59 62.6 °F 54.9 °F 29.88 in Calm     76 % 0.00 in 0.00 W/m2
04:04 62.6 °F 54.9 °F 29.88 in Calm     76 % 0.00 in 0.00 W/m2
04:09 62.6 °F 54.9 °F 29.88 in Calm     76 % 0.00 in 0.00 W/m2
04:14 62.6 °F 54.9 °F 29.88 in Calm     76 % 0.00 in 0.00 W/m2
04:19 62.6 °F 54.9 °F 29.88 in Calm     76 % 0.00 in 0.00 W/m2
04:24 62.6 °F 55.3 °F 29.88 in Calm     77 % 0.00 in 0.00 W/m2
04:29 62.5 °F 55.2 °F 29.88 in Calm   1.0 mph 77 % 0.00 in 0.00 W/m2
04:34 62.5 °F 55.2 °F 29.88 in Calm   1.0 mph 77 % 0.00 in 0.00 W/m2
04:39 62.5 °F 55.2 °F 29.87 in Calm     77 % 0.00 in 0.00 W/m2
04:44 62.5 °F 55.2 °F 29.87 in Calm   1.0 mph 77 % 0.00 in 0.00 W/m2
04:49 62.5 °F 55.2 °F 29.88 in Calm   4.0 mph 77 % 0.00 in 0.00 W/m2
04:54 62.5 °F 55.2 °F 29.88 in Calm     77 % 0.00 in 0.00 W/m2
04:59 62.5 °F 55.2 °F 29.88 in Calm   1.0 mph 77 % 0.00 in 0.00 W/m2
05:04 62.4 °F 55.1 °F 29.88 in Calm   4.0 mph 77 % 0.00 in 0.00 W/m2
05:09 62.4 °F 55.1 °F 29.87 in Calm   3.0 mph 77 % 0.00 in 0.00 W/m2
05:14 62.4 °F 55.1 °F 29.88 in Calm   3.0 mph 77 % 0.00 in 0.00 W/m2
05:19 62.4 °F 55.1 °F 29.88 in Calm     77 % 0.00 in 0.00 W/m2
05:24 62.3 °F 55.0 °F 29.88 in East 1.0 mph 3.0 mph 77 % 0.00 in 0.00 W/m2
05:29 62.3 °F 55.0 °F 29.88 in Calm     77 % 0.00 in 0.00 W/m2
05:34 62.3 °F 55.0 °F 29.88 in Calm     77 % 0.00 in 0.00 W/m2
05:39 62.3 °F 55.0 °F 29.88 in Calm     77 % 0.00 in 0.00 W/m2
05:44 62.3 °F 55.0 °F 29.88 in Calm     77 % 0.00 in 0.00 W/m2
05:49 62.3 °F 55.0 °F 29.89 in Calm     77 % 0.00 in 0.00 W/m2
05:54 62.2 °F 54.9 °F 29.89 in Calm     77 % 0.00 in 0.00 W/m2
05:59 62.3 °F 55.0 °F 29.89 in Calm   4.0 mph 77 % 0.00 in 0.00 W/m2
06:04 62.2 °F 54.9 °F 29.89 in Calm     77 % 0.00 in 0.00 W/m2
06:09 62.2 °F 54.9 °F 29.89 in Calm     77 % 0.00 in 0.00 W/m2
06:14 62.1 °F 54.8 °F 29.89 in Calm     77 % 0.00 in 0.00 W/m2
06:19 62.1 °F 54.8 °F 29.89 in Calm     77 % 0.00 in 5.00 W/m2
06:24 62.1 °F 54.8 °F 29.89 in Calm     77 % 0.00 in 7.00 W/m2
06:29 62.0 °F 54.7 °F 29.89 in Calm     77 % 0.00 in 14.00 W/m2
06:35 62.0 °F 55.1 °F 29.90 in Calm     78 % 0.00 in 21.00 W/m2
06:40 62.0 °F 55.1 °F 29.90 in Calm     78 % 0.00 in 26.00 W/m2
06:45 61.8 °F 54.9 °F 29.90 in Calm     78 % 0.00 in 32.00 W/m2
06:50 61.8 °F 54.9 °F 29.90 in Calm     78 % 0.00 in 39.00 W/m2
06:55 61.8 °F 55.2 °F 29.90 in Calm     79 % 0.00 in 49.00 W/m2
07:00 61.8 °F 55.2 °F 29.90 in Calm     79 % 0.00 in 60.00 W/m2
07:05 61.8 °F 55.2 °F 29.90 in Calm     79 % 0.00 in 72.00 W/m2
07:10 61.8 °F 55.2 °F 29.90 in Calm     79 % 0.00 in 83.00 W/m2
07:15 61.8 °F 55.2 °F 29.90 in Calm     79 % 0.00 in 95.00 W/m2
07:16 61.8 °F 55.2 °F 29.90 in Calm     79 % 0.00 in 98.00 W/m2
07:21 61.9 °F 55.3 °F 29.90 in Calm     79 % 0.00 in 111.00 W/m2
07:26 62.0 °F 55.8 °F 29.90 in Calm     80 % 0.00 in 125.00 W/m2
07:31 62.0 °F 55.8 °F 29.90 in Calm     80 % 0.00 in 142.00 W/m2
07:36 62.1 °F 56.2 °F 29.90 in Calm     81 % 0.00 in 160.00 W/m2
07:41 62.2 °F 56.3 °F 29.90 in Calm     81 % 0.00 in 178.00 W/m2
07:46 62.3 °F 56.4 °F 29.90 in Calm     81 % 0.00 in 199.00 W/m2
07:51 62.4 °F 56.5 °F 29.91 in Calm     81 % 0.00 in 214.00 W/m2
07:56 62.5 °F 56.6 °F 29.91 in Calm     81 % 0.00 in 234.00 W/m2
08:01 62.6 °F 56.7 °F 29.91 in Calm     81 % 0.00 in 251.00 W/m2
08:06 62.8 °F 56.9 °F 29.91 in Calm     81 % 0.00 in 267.00 W/m2
08:11 62.9 °F 57.0 °F 29.91 in Calm     81 % 0.00 in 283.00 W/m2
08:16 63.0 °F 57.1 °F 29.91 in Calm     81 % 0.00 in 299.00 W/m2
08:21 63.1 °F 57.2 °F 29.91 in Calm     81 % 0.00 in 315.00 W/m2
08:26 63.2 °F 56.9 °F 29.91 in Calm     80 % 0.00 in 330.00 W/m2
08:31 63.3 °F 57.0 °F 29.91 in Calm     80 % 0.00 in 343.00 W/m2
08:36 63.5 °F 57.2 °F 29.91 in Calm     80 % 0.00 in 359.00 W/m2
08:41 63.7 °F 57.1 °F 29.91 in Calm     79 % 0.00 in 374.00 W/m2
08:46 64.0 °F 57.0 °F 29.91 in Calm     78 % 0.00 in 390.00 W/m2
08:51 64.3 °F 57.0 °F 29.91 in ENE 1.0 mph 4.0 mph 77 % 0.00 in 408.00 W/m2
08:56 64.7 °F 57.3 °F 29.91 in Calm   3.0 mph 77 % 0.00 in 424.00 W/m2
09:01 65.0 °F 57.6 °F 29.91 in Calm     77 % 0.00 in 438.00 W/m2
09:06 65.3 °F 57.2 °F 29.91 in Calm   2.0 mph 75 % 0.00 in 454.00 W/m2
09:11 65.6 °F 57.5 °F 29.91 in Calm     75 % 0.00 in 462.00 W/m2
09:16 65.9 °F 57.4 °F 29.92 in Calm   2.0 mph 74 % 0.00 in 476.00 W/m2
09:21 66.1 °F 57.6 °F 29.91 in Calm     74 % 0.00 in 490.00 W/m2
09:26 66.3 °F 57.8 °F 29.91 in Calm   2.0 mph 74 % 0.00 in 506.00 W/m2
09:32 66.4 °F 57.9 °F 29.91 in Calm     74 % 0.00 in 520.00 W/m2
09:37 66.6 °F 58.1 °F 29.91 in Calm     74 % 0.00 in 538.00 W/m2
09:41 66.7 °F 58.2 °F 29.91 in Calm     74 % 0.00 in 552.00 W/m2
09:46 66.9 °F 57.6 °F 29.91 in Calm   3.0 mph 72 % 0.00 in 564.00 W/m2
09:51 67.1 °F 57.8 °F 29.92 in NW 1.0 mph 2.0 mph 72 % 0.00 in 577.00 W/m2
09:56 67.3 °F 58.0 °F 29.92 in Calm     72 % 0.00 in 592.00 W/m2
10:01 67.5 °F 58.2 °F 29.92 in Calm     72 % 0.00 in 603.00 W/m2
10:02 67.5 °F 58.2 °F 29.92 in Calm     72 % 0.00 in 605.00 W/m2
10:07 67.8 °F 58.5 °F 29.92 in Calm     72 % 0.00 in 617.00 W/m2
10:12 68.1 °F 58.7 °F 29.92 in NW 3.0 mph 3.0 mph 72 % 0.00 in 626.00 W/m2
10:17 68.3 °F 58.5 °F 29.92 in Calm   1.0 mph 71 % 0.00 in 638.00 W/m2
10:22 68.6 °F 58.4 °F 29.92 in Calm   1.0 mph 70 % 0.00 in 652.00 W/m2
10:27 68.8 °F 58.2 °F 29.92 in NW 1.0 mph 4.0 mph 69 % 0.00 in 663.00 W/m2
10:32 69.0 °F 58.4 °F 29.92 in Calm   5.0 mph 69 % 0.00 in 677.00 W/m2
10:37 69.1 °F 58.5 °F 29.92 in Calm   3.0 mph 69 % 0.00 in 691.00 W/m2
10:42 69.4 °F 58.8 °F 29.93 in NW 2.0 mph 4.0 mph 69 % 0.00 in 705.00 W/m2
10:47 69.5 °F 58.5 °F 29.93 in NW 3.0 mph 6.0 mph 68 % 0.00 in 715.00 W/m2
10:52 69.8 °F 58.8 °F 29.93 in Calm   5.0 mph 68 % 0.00 in 724.00 W/m2
10:57 70.1 °F 59.1 °F 29.92 in NW 4.0 mph 4.0 mph 68 % 0.00 in 735.00 W/m2
11:02 70.3 °F 58.8 °F 29.93 in Calm   5.0 mph 67 % 0.00 in 745.00 W/m2
11:07 70.5 °F 59.0 °F 29.92 in Calm   6.0 mph 67 % 0.00 in 751.00 W/m2
11:12 70.8 °F 58.9 °F 29.92 in Calm   5.0 mph 66 % 0.00 in 758.00 W/m2
11:17 71.0 °F 59.1 °F 29.93 in Calm   2.0 mph 66 % 0.00 in 765.00 W/m2
11:22 71.2 °F 58.8 °F 29.93 in Calm     65 % 0.00 in 773.00 W/m2
11:27 71.5 °F 59.1 °F 29.93 in West 3.0 mph 7.0 mph 65 % 0.00 in 779.00 W/m2
11:32 71.8 °F 59.4 °F 29.93 in Calm   6.0 mph 65 % 0.00 in 784.00 W/m2
11:37 72.1 °F 59.3 °F 29.93 in Calm     64 % 0.00 in 793.00 W/m2
11:42 72.5 °F 59.2 °F 29.93 in Calm     63 % 0.00 in 798.00 W/m2
11:47 72.8 °F 59.9 °F 29.93 in Calm   8.0 mph 64 % 0.00 in 803.00 W/m2
11:52 73.1 °F 59.8 °F 29.93 in Calm   6.0 mph 63 % 0.00 in 807.00 W/m2
11:58 73.7 °F 60.3 °F 29.92 in Calm     63 % 0.00 in 816.00 W/m2
12:02 74.2 °F 60.4 °F 29.92 in Calm   1.0 mph 62 % 0.00 in 817.00 W/m2
12:07 74.4 °F 60.1 °F 29.93 in Calm   3.0 mph 61 % 0.00 in 823.00 W/m2
12:13 74.7 °F 60.4 °F 29.92 in WSW 5.0 mph 6.0 mph 61 % 0.00 in 826.00 W/m2
12:18 75.0 °F 60.2 °F 29.93 in SW 4.0 mph 4.0 mph 60 % 0.00 in 831.00 W/m2
12:23 75.6 °F 59.8 °F 29.93 in Calm   6.0 mph 58 % 0.00 in 835.00 W/m2
12:28 76.2 °F 59.9 °F 29.92 in Calm   4.0 mph 57 % 0.00 in 837.00 W/m2
12:33 76.1 °F 59.8 °F 29.92 in Calm   7.0 mph 57 % 0.00 in 840.00 W/m2
12:38 76.0 °F 59.7 °F 29.92 in SW 3.0 mph 8.0 mph 57 % 0.00 in 844.00 W/m2
12:43 76.2 °F 59.9 °F 29.92 in Calm     57 % 0.00 in 840.00 W/m2
12:48 76.2 °F 59.9 °F 29.92 in SW 1.0 mph 6.0 mph 57 % 0.00 in 846.00 W/m2
12:53 76.3 °F 60.0 °F 29.92 in Calm   7.0 mph 57 % 0.00 in 847.00 W/m2
12:58 76.5 °F 59.7 °F 29.92 in Calm   6.0 mph 56 % 0.00 in 847.00 W/m2
13:03 76.6 °F 59.8 °F 29.92 in Calm   1.0 mph 56 % 0.00 in 849.00 W/m2
13:08 76.9 °F 60.0 °F 29.92 in Calm   6.0 mph 56 % 0.00 in 849.00 W/m2
13:13 77.3 °F 59.9 °F 29.92 in Calm   9.0 mph 55 % 0.00 in 851.00 W/m2
13:18 77.3 °F 59.4 °F 29.92 in Calm   6.0 mph 54 % 0.00 in 849.00 W/m2
13:23 77.3 °F 59.4 °F 29.92 in Calm   4.0 mph 54 % 0.00 in 847.00 W/m2
13:28 77.0 °F 59.1 °F 29.92 in West 6.0 mph 7.0 mph 54 % 0.00 in 844.00 W/m2
13:33 77.1 °F 59.7 °F 29.92 in WSW 4.0 mph 7.0 mph 55 % 0.00 in 842.00 W/m2
13:38 77.3 °F 59.4 °F 29.92 in Calm   2.0 mph 54 % 0.00 in 840.00 W/m2
13:43 77.3 °F 59.9 °F 29.91 in Calm   2.0 mph 55 % 0.00 in 838.00 W/m2
13:48 77.2 °F 59.8 °F 29.92 in Calm   4.0 mph 55 % 0.00 in 837.00 W/m2
13:53 77.2 °F 59.3 °F 29.92 in Calm   8.0 mph 54 % 0.00 in 830.00 W/m2
13:58 77.2 °F 59.3 °F 29.92 in Calm   5.0 mph 54 % 0.00 in 823.00 W/m2
14:03 77.1 °F 59.2 °F 29.91 in WSW 5.0 mph 5.0 mph 54 % 0.00 in 823.00 W/m2
14:08 77.2 °F 59.3 °F 29.91 in Calm   7.0 mph 54 % 0.00 in 819.00 W/m2
14:13 77.8 °F 59.3 °F 29.91 in WNW 3.0 mph 8.0 mph 53 % 0.00 in 814.00 W/m2
14:18 78.2 °F 59.2 °F 29.91 in Calm   6.0 mph 52 % 0.00 in 809.00 W/m2
14:23 78.2 °F 59.2 °F 29.91 in Calm     52 % 0.00 in 805.00 W/m2
14:28 77.8 °F 59.3 °F 29.91 in West 1.0 mph 6.0 mph 53 % 0.00 in 798.00 W/m2
14:33 77.8 °F 58.8 °F 29.91 in WSW 3.0 mph 6.0 mph 52 % 0.00 in 789.00 W/m2
14:38 78.1 °F 59.6 °F 29.91 in WSW 2.0 mph 6.0 mph 53 % 0.00 in 788.00 W/m2
14:43 78.2 °F 59.2 °F 29.91 in Calm   7.0 mph 52 % 0.00 in 779.00 W/m2
14:48 78.5 °F 58.9 °F 29.91 in Calm   5.0 mph 51 % 0.00 in 770.00 W/m2
14:53 78.8 °F 58.6 °F 29.91 in Calm   5.0 mph 50 % 0.00 in 761.00 W/m2
14:58 79.0 °F 58.8 °F 29.91 in Calm   5.0 mph 50 % 0.00 in 752.00 W/m2
15:03 79.3 °F 58.5 °F 29.91 in Calm   4.0 mph 49 % 0.00 in 745.00 W/m2
15:08 79.4 °F 59.2 °F 29.91 in SSW 2.0 mph 8.0 mph 50 % 0.00 in 735.00 W/m2
15:13 79.6 °F 58.8 °F 29.91 in Calm   8.0 mph 49 % 0.00 in 729.00 W/m2
15:18 79.8 °F 59.0 °F 29.91 in SSW 3.0 mph 6.0 mph 49 % 0.00 in 717.00 W/m2
15:23 79.9 °F 59.0 °F 29.90 in Calm   6.0 mph 49 % 0.00 in 708.00 W/m2
15:29 80.0 °F 58.6 °F 29.91 in SW 4.0 mph 8.0 mph 48 % 0.00 in 698.00 W/m2
15:34 80.0 °F 58.6 °F 29.90 in Calm   2.0 mph 48 % 0.00 in 686.00 W/m2
15:39 79.8 °F 59.0 °F 29.91 in Calm   3.0 mph 49 % 0.00 in 675.00 W/m2
15:44 79.6 °F 58.8 °F 29.90 in WSW 3.0 mph 5.0 mph 49 % 0.00 in 664.00 W/m2
15:49 79.3 °F 58.5 °F 29.90 in Calm   5.0 mph 49 % 0.00 in 652.00 W/m2
15:54 79.1 °F 58.3 °F 29.91 in SSW 5.0 mph 8.0 mph 49 % 0.00 in 643.00 W/m2
15:59 79.2 °F 58.4 °F 29.91 in SSW 1.0 mph 5.0 mph 49 % 0.00 in 631.00 W/m2
16:04 79.2 °F 58.4 °F 29.91 in Calm   8.0 mph 49 % 0.00 in 617.00 W/m2
16:09 79.2 °F 57.8 °F 29.91 in SSW 2.0 mph 8.0 mph 48 % 0.00 in 605.00 W/m2
16:14 79.3 °F 58.5 °F 29.91 in SSW 4.0 mph 4.0 mph 49 % 0.00 in 587.00 W/m2
16:19 79.3 °F 57.9 °F 29.91 in SW 3.0 mph 7.0 mph 48 % 0.00 in 573.00 W/m2
16:24 79.4 °F 58.6 °F 29.90 in SW 3.0 mph 7.0 mph 49 % 0.00 in 561.00 W/m2
16:29 79.4 °F 58.0 °F 29.91 in SSW 2.0 mph 7.0 mph 48 % 0.00 in 547.00 W/m2
16:35 79.3 °F 58.5 °F 29.91 in SSW 3.0 mph 4.0 mph 49 % 0.00 in 533.00 W/m2
16:40 79.3 °F 58.5 °F 29.91 in SW 2.0 mph 5.0 mph 49 % 0.00 in 519.00 W/m2
16:45 79.3 °F 57.9 °F 29.91 in SW 4.0 mph 7.0 mph 48 % 0.00 in 504.00 W/m2
16:50 79.1 °F 58.9 °F 29.91 in SW 1.0 mph 5.0 mph 50 % 0.00 in 489.00 W/m2
16:55 79.0 °F 58.2 °F 29.91 in South 4.0 mph 7.0 mph 49 % 0.00 in 475.00 W/m2
17:00 78.9 °F 57.6 °F 29.91 in SW 4.0 mph 6.0 mph 48 % 0.00 in 459.00 W/m2
17:01 78.9 °F 58.1 °F 29.91 in Calm     49 % 0.00 in 457.00 W/m2
17:06 78.8 °F 57.5 °F 29.91 in WSW 2.0 mph 3.0 mph 48 % 0.00 in 441.00 W/m2
17:11 78.7 °F 57.4 °F 29.91 in West 3.0 mph 4.0 mph 48 % 0.00 in 424.00 W/m2
17:16 78.5 °F 57.8 °F 29.90 in WSW 2.0 mph 5.0 mph 49 % 0.00 in 413.00 W/m2
17:21 78.4 °F 58.2 °F 29.90 in SW 4.0 mph 6.0 mph 50 % 0.00 in 397.00 W/m2
17:26 78.3 °F 58.7 °F 29.90 in Calm     51 % 0.00 in 380.00 W/m2
17:31 78.3 °F 57.6 °F 29.90 in Calm   2.0 mph 49 % 0.00 in 366.00 W/m2
17:36 78.3 °F 57.6 °F 29.90 in Calm   5.0 mph 49 % 0.00 in 352.00 W/m2
17:41 78.3 °F 57.6 °F 29.90 in WSW 4.0 mph 5.0 mph 49 % 0.00 in 336.00 W/m2
17:46 78.4 °F 58.8 °F 29.90 in Calm     51 % 0.00 in 320.00 W/m2
17:51 78.3 °F 57.6 °F 29.90 in Calm   4.0 mph 49 % 0.00 in 304.00 W/m2
17:56 78.2 °F 57.5 °F 29.90 in Calm     49 % 0.00 in 290.00 W/m2
18:01 78.1 °F 58.0 °F 29.90 in Calm     50 % 0.00 in 276.00 W/m2
18:06 78.1 °F 57.4 °F 29.90 in Calm     49 % 0.00 in 257.00 W/m2
18:11 78.0 °F 57.9 °F 29.91 in Calm     50 % 0.00 in 243.00 W/m2
18:16 77.9 °F 58.9 °F 29.90 in Calm     52 % 0.00 in 227.00 W/m2
18:21 77.7 °F 58.7 °F 29.90 in Calm     52 % 0.00 in 211.00 W/m2
18:26 77.5 °F 57.4 °F 29.90 in Calm     50 % 0.00 in 197.00 W/m2
18:31 77.3 °F 57.8 °F 29.90 in Calm     51 % 0.00 in 181.00 W/m2
18:36 77.3 °F 57.8 °F 29.90 in Calm     51 % 0.00 in 167.00 W/m2
18:41 77.2 °F 58.2 °F 29.90 in Calm     52 % 0.00 in 149.00 W/m2
18:46 77.1 °F 58.1 °F 29.90 in Calm     52 % 0.00 in 132.00 W/m2
18:51 77.0 °F 58.6 °F 29.90 in Calm     53 % 0.00 in 118.00 W/m2
18:56 76.8 °F 58.9 °F 29.90 in Calm     54 % 0.00 in 102.00 W/m2
19:01 76.7 °F 58.8 °F 29.90 in Calm     54 % 0.00 in 86.00 W/m2
19:06 76.5 °F 58.1 °F 29.90 in Calm     53 % 0.00 in 72.00 W/m2
19:11 76.3 °F 59.0 °F 29.90 in Calm     55 % 0.00 in 60.00 W/m2
19:16 76.1 °F 58.8 °F 29.90 in Calm     55 % 0.00 in 47.00 W/m2
19:21 75.9 °F 58.6 °F 29.90 in Calm     55 % 0.00 in 39.00 W/m2
19:27 75.7 °F 58.9 °F 29.90 in Calm     56 % 0.00 in 32.00 W/m2
19:32 75.0 °F 58.8 °F 29.91 in Calm     57 % 0.00 in 25.00 W/m2
19:37 74.6 °F 58.4 °F 29.90 in Calm     57 % 0.00 in 19.00 W/m2
19:42 74.5 °F 58.3 °F 29.90 in Calm     57 % 0.00 in 16.00 W/m2
19:47 74.2 °F 59.0 °F 29.90 in Calm     59 % 0.00 in 12.00 W/m2
19:52 73.8 °F 58.6 °F 29.90 in Calm     59 % 0.00 in 9.00 W/m2
19:57 73.6 °F 57.9 °F 29.90 in Calm     58 % 0.00 in 5.00 W/m2
20:02 73.4 °F 58.2 °F 29.91 in Calm     59 % 0.00 in 0.00 W/m2
20:07 73.1 °F 57.9 °F 29.91 in Calm     59 % 0.00 in 0.00 W/m2
20:14 72.7 °F 58.0 °F 29.91 in Calm     60 % 0.00 in 0.00 W/m2
20:19 72.3 °F 57.7 °F 29.91 in Calm     60 % 0.00 in 0.00 W/m2
20:22 72.2 °F 57.6 °F 29.91 in Calm     60 % 0.00 in 0.00 W/m2
20:27 71.8 °F 57.6 °F 29.91 in Calm     61 % 0.00 in 0.00 W/m2
20:36 71.0 °F 56.9 °F 29.91 in Calm     61 % 0.00 in 0.00 W/m2
20:41 70.7 °F 57.1 °F 29.92 in Calm     62 % 0.00 in 0.00 W/m2
20:45 70.5 °F 56.9 °F 29.92 in Calm     62 % 0.00 in 0.00 W/m2
20:50 70.3 °F 56.7 °F 29.92 in Calm     62 % 0.00 in 0.00 W/m2
20:55 70.1 °F 56.5 °F 29.92 in Calm     62 % 0.00 in 0.00 W/m2
21:00 70.0 °F 56.8 °F 29.92 in Calm     63 % 0.00 in 0.00 W/m2
21:06 69.7 °F 56.6 °F 29.92 in Calm     63 % 0.00 in 0.00 W/m2
21:11 69.5 °F 56.4 °F 29.92 in Calm     63 % 0.00 in 0.00 W/m2
21:16 69.4 °F 56.3 °F 29.93 in Calm     63 % 0.00 in 0.00 W/m2
21:21 69.4 °F 56.7 °F 29.93 in Calm     64 % 0.00 in 0.00 W/m2
21:26 69.2 °F 56.5 °F 29.93 in Calm     64 % 0.00 in 0.00 W/m2
21:31 69.1 °F 56.4 °F 29.93 in Calm     64 % 0.00 in 0.00 W/m2
21:36 69.0 °F 56.3 °F 29.93 in Calm     64 % 0.00 in 0.00 W/m2
21:41 68.8 °F 56.1 °F 29.93 in Calm     64 % 0.00 in 0.00 W/m2
21:46 68.7 °F 56.5 °F 29.93 in Calm     65 % 0.00 in 0.00 W/m2
21:51 68.6 °F 56.4 °F 29.93 in Calm     65 % 0.00 in 0.00 W/m2
21:56 68.5 °F 56.3 °F 29.93 in Calm     65 % 0.00 in 0.00 W/m2
22:01 68.4 °F 56.2 °F 29.93 in Calm     65 % 0.00 in 0.00 W/m2
22:06 68.3 °F 56.1 °F 29.93 in Calm     65 % 0.00 in 0.00 W/m2
22:11 68.3 °F 56.1 °F 29.93 in Calm     65 % 0.00 in 0.00 W/m2
22:16 68.1 °F 55.9 °F 29.93 in Calm     65 % 0.00 in 0.00 W/m2
22:21 67.9 °F 56.1 °F 29.93 in Calm     66 % 0.00 in 0.00 W/m2
22:26 67.7 °F 56.0 °F 29.93 in Calm     66 % 0.00 in 0.00 W/m2
22:31 67.6 °F 55.8 °F 29.93 in Calm     66 % 0.00 in 0.00 W/m2
22:36 67.5 °F 55.8 °F 29.93 in Calm     66 % 0.00 in 0.00 W/m2
22:41 67.5 °F 56.2 °F 29.93 in Calm     67 % 0.00 in 0.00 W/m2
22:46 67.4 °F 56.1 °F 29.93 in Calm     67 % 0.00 in 0.00 W/m2
22:51 67.4 °F 56.1 °F 29.93 in Calm     67 % 0.00 in 0.00 W/m2
22:56 67.4 °F 56.1 °F 29.93 in Calm     67 % 0.00 in 0.00 W/m2
23:01 67.4 °F 56.1 °F 29.93 in Calm     67 % 0.00 in 0.00 W/m2
23:06 67.3 °F 56.4 °F 29.93 in Calm     68 % 0.00 in 0.00 W/m2
23:11 67.2 °F 56.3 °F 29.93 in Calm     68 % 0.00 in 0.00 W/m2
23:16 67.1 °F 56.6 °F 29.93 in Calm     69 % 0.00 in 0.00 W/m2
23:21 67.0 °F 56.5 °F 29.93 in Calm     69 % 0.00 in 0.00 W/m2
23:26 67.0 °F 56.5 °F 29.93 in Calm     69 % 0.00 in 0.00 W/m2
23:31 67.0 °F 56.5 °F 29.93 in Calm     69 % 0.00 in 0.00 W/m2
23:36 66.9 °F 56.4 °F 29.93 in Calm     69 % 0.00 in 0.00 W/m2
23:41 66.9 °F 56.4 °F 29.94 in Calm     69 % 0.00 in 0.00 W/m2
23:46 66.9 °F 56.4 °F 29.94 in Calm     69 % 0.00 in 0.00 W/m2
23:51 66.7 °F 56.6 °F 29.94 in Calm     70 % 0.00 in 0.00 W/m2
23:56 66.6 °F 56.5 °F 29.94 in Calm     70 % 0.00 in 0.00 W/m2
Juneau County Weather
Compliments of Weather Underground - 4.5 mb
 WU-history PHP script courtesy of   Juneau County Weather.
powered by Cumulus v1.9.3 (1059)
Ambient Weather VWS v14.00
Top Contact Website Map Copyright © 2007 - 2018 Foresthillweather.com Never base important decisions on this or any weather information obtained from the Internet